Braxton, Indiana
Current Conditions -  °F | °C
As of 2:15 AM on Saturday 29 Nov 2014 (Local Time) from KHNB Reporting Station
Clear Clear  
Wind Chill: 32°   Ceiling: Unl
Heat Index: 39°   Visibility: 10mi
Dew Point: 27°   Wind: 12mph
Humidity: 61%   Direction: 190°S
Pressure: 30.02"   Gusts: NA
Location:  38.5454°N, 86.4243°W
Report Text: KHNB 290715Z AUTO 19010KT 10SM CLR 04/M03 A3002 RMK AO1
Loading
Personal Weather Stations






























Interactive Weather Map New forecast layout! Learn more

10-Day Weather Forecast

Advertisements
Track Severe Weather on mobile